Time;durP1;ratioP1;P1;durP2;ratioP2;P2;SDS_P1;SDS_P2;PMS_P1;PMS_P2;Temp;Humidity;BMP_temperature;BMP_pressure;BME280_temperature;BME280_humidity;BME280_pressure;Samples;Min_cycle;Max_cycle;Signal;HPM_P1;HPM_P2
2022/10/30 00:00:43;;;;;;;;;;;14.90;99.90;;;;;;5043976;28;20023;-70
2022/10/30 00:03:10;;;;;;;;;;;14.90;99.90;;;;;;5045397;28;19931;-70
2022/10/30 00:05:39;;;;;;;;;;;15.00;99.90;;;;;;5044804;28;19975;-70
2022/10/30 00:08:09;;;;;;;;;;;15.10;99.90;;;;;;5038676;28;19931;-70
2022/10/30 00:10:36;;;;;;;;;;;15.10;99.90;;;;;;5039626;28;20011;-70
2022/10/30 00:13:03;;;;;;;;;;;15.10;99.90;;;;;;5049388;28;20390;-70
2022/10/30 00:15:29;;;;;;;;;;;15.10;99.90;;;;;;5043526;28;19925;-70
2022/10/30 00:17:56;;;;;;;;;;;15.10;99.90;;;;;;5043943;28;19929;-70
2022/10/30 00:20:22;;;;;;;;;;;15.10;99.90;;;;;;5040182;28;19980;-70
2022/10/30 00:22:49;;;;;;;;;;;15.10;99.90;;;;;;5039884;28;19931;-70
2022/10/30 00:25:17;;;;;;;;;;;15.00;99.90;;;;;;5042707;28;19924;-70
2022/10/30 00:27:44;;;;;;;;;;;15.10;99.90;;;;;;5050733;28;20366;-70
2022/10/30 00:30:11;;;;;;;;;;;15.10;99.90;;;;;;5043021;28;20399;-70
2022/10/30 00:32:38;;;;;;;;;;;15.10;99.90;;;;;;5047131;28;20311;-70
2022/10/30 00:35:05;;;;;;;;;;;15.10;99.90;;;;;;5034506;28;19947;-70
2022/10/30 00:37:31;;;;;;;;;;;15.10;99.90;;;;;;5049442;28;20375;-70
2022/10/30 00:39:58;;;;;;;;;;;15.00;99.90;;;;;;5049260;28;20355;-70
2022/10/30 00:42:28;;;;;;;;;;;15.00;99.90;;;;;;5047127;28;19925;-70
2022/10/30 00:44:55;;;;;;;;;;;15.00;99.90;;;;;;5045677;28;19932;-69
2022/10/30 00:47:25;;;;;;;;;;;14.90;99.90;;;;;;5051164;28;19931;-70
2022/10/30 00:49:55;;;;;;;;;;;14.90;99.90;;;;;;5050806;28;19931;-70
2022/10/30 00:52:23;;;;;;;;;;;14.80;99.90;;;;;;5050321;28;19932;-70
2022/10/30 00:54:50;;;;;;;;;;;14.80;99.90;;;;;;5047403;28;19925;-71
2022/10/30 00:57:17;;;;;;;;;;;14.80;99.90;;;;;;5051307;28;19945;-70
2022/10/30 00:59:46;;;;;;;;;;;14.70;99.90;;;;;;5050694;28;19964;-71
2022/10/30 01:02:13;;;;;;;;;;;14.70;99.90;;;;;;5046903;28;19932;-71
2022/10/30 01:04:40;;;;;;;;;;;14.70;99.90;;;;;;5045824;28;19924;-70
2022/10/30 01:07:09;;;;;;;;;;;14.70;99.90;;;;;;5043845;28;19968;-70
2022/10/30 01:09:36;;;;;;;;;;;14.70;99.90;;;;;;5050550;28;19928;-70
2022/10/30 01:12:03;;;;;;;;;;;14.70;99.90;;;;;;5045831;28;19933;-70
2022/10/30 01:14:30;;;;;;;;;;;14.70;99.90;;;;;;5047370;28;19936;-70
2022/10/30 01:17:09;;;;;;;;;;;14.70;99.90;;;;;;5049272;28;20042;-70
2022/10/30 01:19:39;;;;;;;;;;;14.60;99.90;;;;;;5049867;28;19931;-70
2022/10/30 01:22:18;;;;;;;;;;;14.60;99.90;;;;;;5049179;28;19928;-70
2022/10/30 01:24:49;;;;;;;;;;;14.70;99.90;;;;;;5047930;28;19929;-70
2022/10/30 01:27:22;;;;;;;;;;;14.70;99.90;;;;;;5049620;28;20024;-70
2022/10/30 01:29:56;;;;;;;;;;;14.70;99.90;;;;;;5050284;28;19924;-70
2022/10/30 01:32:37;;;;;;;;;;;14.70;99.90;;;;;;5049993;28;19932;-70
2022/10/30 01:35:06;;;;;;;;;;;14.70;99.90;;;;;;5048622;28;20459;-70
2022/10/30 01:37:34;;;;;;;;;;;14.70;99.90;;;;;;5050249;28;19947;-70
2022/10/30 01:40:04;;;;;;;;;;;14.70;99.90;;;;;;5049396;28;19925;-71
2022/10/30 01:42:45;;;;;;;;;;;14.70;99.90;;;;;;5046458;28;19924;-70
2022/10/30 01:45:14;;;;;;;;;;;14.60;99.90;;;;;;5047478;28;19955;-70
2022/10/30 01:47:47;;;;;;;;;;;14.60;99.90;;;;;;5052664;28;20298;-70
2022/10/30 01:50:22;;;;;;;;;;;14.60;99.90;;;;;;5053487;28;19925;-70
2022/10/30 01:52:51;;;;;;;;;;;14.60;99.90;;;;;;5048600;28;19931;-70
2022/10/30 01:55:25;;;;;;;;;;;14.60;99.90;;;;;;5047995;28;19925;-70
2022/10/30 01:57:54;;;;;;;;;;;14.60;99.90;;;;;;5049088;28;19925;-70
2022/10/30 02:00:21;;;;;;;;;;;14.60;99.90;;;;;;5050996;28;19925;-70
2022/10/30 02:02:50;;;;;;;;;;;14.50;99.90;;;;;;5053469;28;19925;-70
2022/10/30 02:05:19;;;;;;;;;;;14.50;99.90;;;;;;5044656;28;19925;-70
2022/10/30 02:07:46;;;;;;;;;;;14.60;99.90;;;;;;5054319;28;19931;-70
2022/10/30 02:10:13;;;;;;;;;;;14.60;99.90;;;;;;5053122;28;19964;-70
2022/10/30 02:12:39;;;;;;;;;;;14.70;99.90;;;;;;5054127;28;20290;-70
2022/10/30 02:15:06;;;;;;;;;;;14.70;99.90;;;;;;5051668;28;19931;-70
2022/10/30 02:17:33;;;;;;;;;;;14.70;99.90;;;;;;5053479;28;19928;-70
2022/10/30 02:20:01;;;;;;;;;;;14.70;99.90;;;;;;5054093;28;19924;-70
2022/10/30 02:22:29;;;;;;;;;;;14.70;99.90;;;;;;5051785;28;19999;-70
2022/10/30 02:24:56;;;;;;;;;;;14.70;99.90;;;;;;5051943;28;20403;-69
2022/10/30 02:27:22;;;;;;;;;;;14.70;99.90;;;;;;5052800;28;20394;-70
2022/10/30 02:29:49;;;;;;;;;;;14.70;99.90;;;;;;5053601;28;19925;-70
2022/10/30 02:32:16;;;;;;;;;;;14.60;99.90;;;;;;5052277;28;19928;-70
2022/10/30 02:34:42;;;;;;;;;;;14.60;99.90;;;;;;5051947;28;19931;-70
2022/10/30 02:37:09;;;;;;;;;;;14.50;99.90;;;;;;5053526;28;20399;-70
2022/10/30 02:39:37;;;;;;;;;;;14.40;99.90;;;;;;5052562;28;20008;-70
2022/10/30 02:42:04;;;;;;;;;;;14.40;99.90;;;;;;5050799;28;19929;-70
2022/10/30 02:44:31;;;;;;;;;;;14.40;99.90;;;;;;5049365;28;19928;-70
2022/10/30 02:46:57;;;;;;;;;;;14.40;99.90;;;;;;5052125;28;19931;-70
2022/10/30 02:49:24;;;;;;;;;;;14.40;99.90;;;;;;5049836;28;20287;-70
2022/10/30 02:51:51;;;;;;;;;;;14.40;99.90;;;;;;5052013;28;20168;-70
2022/10/30 02:54:17;;;;;;;;;;;14.40;99.90;;;;;;5051798;28;19931;-70
2022/10/30 02:56:45;;;;;;;;;;;14.50;99.90;;;;;;5053561;28;20023;-69
2022/10/30 02:59:12;;;;;;;;;;;14.50;99.90;;;;;;5052259;28;19929;-70
2022/10/30 03:01:39;;;;;;;;;;;14.50;99.90;;;;;;5049860;28;19968;-69
2022/10/30 03:04:05;;;;;;;;;;;14.40;99.90;;;;;;5050863;28;19924;-69
2022/10/30 03:06:32;;;;;;;;;;;14.40;99.90;;;;;;5050609;28;20330;-70
2022/10/30 03:08:59;;;;;;;;;;;14.40;99.90;;;;;;5052164;28;20305;-70
2022/10/30 03:11:26;;;;;;;;;;;14.30;99.90;;;;;;5051681;28;20328;-70
2022/10/30 03:13:54;;;;;;;;;;;14.30;99.90;;;;;;5048619;28;20264;-70
2022/10/30 03:16:21;;;;;;;;;;;14.30;99.90;;;;;;5052155;28;19948;-70
2022/10/30 03:18:48;;;;;;;;;;;14.20;99.90;;;;;;5049085;28;20027;-70
2022/10/30 03:21:16;;;;;;;;;;;14.20;99.90;;;;;;5050757;28;19935;-70
2022/10/30 03:23:43;;;;;;;;;;;14.20;99.90;;;;;;5054023;28;19925;-70
2022/10/30 03:26:09;;;;;;;;;;;14.10;99.90;;;;;;5052123;28;20398;-70
2022/10/30 03:28:36;;;;;;;;;;;14.10;99.90;;;;;;5051902;28;20020;-70
2022/10/30 03:31:05;;;;;;;;;;;14.00;99.90;;;;;;5044915;28;20028;-70
2022/10/30 03:33:32;;;;;;;;;;;14.00;99.90;;;;;;5040279;28;19968;-70
2022/10/30 03:35:59;;;;;;;;;;;13.90;99.90;;;;;;5051018;28;19931;-70
2022/10/30 03:38:26;;;;;;;;;;;13.90;99.90;;;;;;5052701;28;19924;-70
2022/10/30 03:40:53;;;;;;;;;;;13.90;99.90;;;;;;5047306;28;19925;-70
2022/10/30 03:43:19;;;;;;;;;;;13.90;99.90;;;;;;5048874;28;20423;-70
2022/10/30 03:45:47;;;;;;;;;;;13.90;99.90;;;;;;5049862;28;19925;-70
2022/10/30 03:48:15;;;;;;;;;;;14.00;99.90;;;;;;5050346;28;19925;-71
2022/10/30 03:50:42;;;;;;;;;;;14.00;99.90;;;;;;5049678;28;19924;-70
2022/10/30 03:53:09;;;;;;;;;;;14.10;99.90;;;;;;5052779;28;20015;-71
2022/10/30 03:55:35;;;;;;;;;;;14.10;99.90;;;;;;5051115;28;19924;-71
2022/10/30 03:58:02;;;;;;;;;;;14.10;99.90;;;;;;5051118;28;19991;-71
2022/10/30 04:00:29;;;;;;;;;;;14.10;99.90;;;;;;5050298;28;20399;-70
2022/10/30 04:02:55;;;;;;;;;;;14.00;99.90;;;;;;5050895;28;20019;-70
2022/10/30 04:05:24;;;;;;;;;;;13.90;99.90;;;;;;5050863;28;19947;-70
2022/10/30 04:07:55;;;;;;;;;;;13.90;99.90;;;;;;5051616;28;20371;-70
2022/10/30 04:10:21;;;;;;;;;;;13.70;99.90;;;;;;5047773;28;19931;-70
2022/10/30 04:12:48;;;;;;;;;;;13.60;99.90;;;;;;5052780;28;19925;-70
2022/10/30 04:15:15;;;;;;;;;;;13.60;99.90;;;;;;5052204;28;19929;-70
2022/10/30 04:17:48;;;;;;;;;;;13.50;99.90;;;;;;5051122;28;19972;-71
2022/10/30 04:20:14;;;;;;;;;;;13.40;99.90;;;;;;5038149;28;19928;-70
2022/10/30 04:22:42;;;;;;;;;;;13.40;99.90;;;;;;5050732;28;19960;-70
2022/10/30 04:25:09;;;;;;;;;;;13.40;99.90;;;;;;5052551;28;20019;-70
2022/10/30 04:27:39;;;;;;;;;;;13.40;99.90;;;;;;5051298;28;20167;-70
2022/10/30 04:30:06;;;;;;;;;;;13.40;99.90;;;;;;5051646;28;20385;-70
2022/10/30 04:32:33;;;;;;;;;;;13.40;99.90;;;;;;5051406;28;19924;-70
2022/10/30 04:34:59;;;;;;;;;;;13.30;99.90;;;;;;5049623;28;20299;-70
2022/10/30 04:37:26;;;;;;;;;;;13.20;99.90;;;;;;5048225;28;19925;-70
2022/10/30 04:39:54;;;;;;;;;;;13.10;99.90;;;;;;5047869;28;20406;-70
2022/10/30 04:42:21;;;;;;;;;;;13.10;99.90;;;;;;5050706;28;20019;-70
2022/10/30 04:44:47;;;;;;;;;;;13.00;99.90;;;;;;5050142;28;19931;-70
2022/10/30 04:47:16;;;;;;;;;;;12.90;99.90;;;;;;5050071;28;20036;-70
2022/10/30 04:49:42;;;;;;;;;;;12.90;99.90;;;;;;5049339;28;20388;-70
2022/10/30 04:52:09;;;;;;;;;;;12.90;99.90;;;;;;5049718;28;20439;-70
2022/10/30 04:54:36;;;;;;;;;;;12.80;99.90;;;;;;5049820;28;19931;-70
2022/10/30 04:57:04;;;;;;;;;;;12.80;99.90;;;;;;5050436;28;19933;-70
2022/10/30 04:59:31;;;;;;;;;;;12.70;99.90;;;;;;5048703;28;20358;-70
2022/10/30 05:01:58;;;;;;;;;;;12.70;99.90;;;;;;5049512;28;19925;-71
2022/10/30 05:04:24;;;;;;;;;;;12.70;99.90;;;;;;5051258;28;19925;-71
2022/10/30 05:06:51;;;;;;;;;;;12.60;99.90;;;;;;5046906;28;19924;-70
2022/10/30 05:09:17;;;;;;;;;;;12.60;99.90;;;;;;5047152;28;19960;-70
2022/10/30 05:11:44;;;;;;;;;;;12.60;99.90;;;;;;5047526;28;19925;-70
2022/10/30 05:14:12;;;;;;;;;;;12.50;99.90;;;;;;5049569;28;19925;-70
2022/10/30 05:16:39;;;;;;;;;;;12.50;99.90;;;;;;5047832;28;19924;-70
2022/10/30 05:19:05;;;;;;;;;;;12.50;99.90;;;;;;5049313;28;19924;-70
2022/10/30 05:21:32;;;;;;;;;;;12.50;99.90;;;;;;5049208;28;19925;-70
2022/10/30 05:23:58;;;;;;;;;;;12.40;99.90;;;;;;5054122;28;19931;-70
2022/10/30 05:26:25;;;;;;;;;;;12.40;99.90;;;;;;5048101;28;19925;-70
2022/10/30 05:28:52;;;;;;;;;;;12.30;99.90;;;;;;5048241;28;19935;-70
2022/10/30 05:31:20;;;;;;;;;;;12.40;99.90;;;;;;5048499;28;19931;-70
2022/10/30 05:33:46;;;;;;;;;;;12.30;99.90;;;;;;5054326;28;19931;-70
2022/10/30 05:36:13;;;;;;;;;;;12.20;99.90;;;;;;5053167;28;19925;-70
2022/10/30 05:38:40;;;;;;;;;;;12.10;99.90;;;;;;5046080;28;19925;-70
2022/10/30 05:41:06;;;;;;;;;;;12.10;99.90;;;;;;5050559;28;20016;-70
2022/10/30 05:43:33;;;;;;;;;;;12.10;99.90;;;;;;5053664;28;19933;-70
2022/10/30 05:45:59;;;;;;;;;;;12.00;99.90;;;;;;5053468;28;19931;-69
2022/10/30 05:48:27;;;;;;;;;;;12.00;99.90;;;;;;5049669;28;19935;-70
2022/10/30 05:50:55;;;;;;;;;;;12.10;99.90;;;;;;5053425;28;20032;-70
2022/10/30 05:53:22;;;;;;;;;;;12.00;99.90;;;;;;5052631;28;19925;-70
2022/10/30 05:55:48;;;;;;;;;;;12.00;99.90;;;;;;5051794;28;19932;-70
2022/10/30 05:58:15;;;;;;;;;;;12.00;99.90;;;;;;5053720;28;19935;-70
2022/10/30 06:00:43;;;;;;;;;;;12.10;99.90;;;;;;5053576;28;20306;-70
2022/10/30 06:03:10;;;;;;;;;;;12.00;99.90;;;;;;5046857;28;20347;-70
2022/10/30 06:05:39;;;;;;;;;;;12.00;99.90;;;;;;5050030;28;19925;-69
2022/10/30 06:08:06;;;;;;;;;;;11.90;99.90;;;;;;5053231;28;19931;-69
2022/10/30 06:10:33;;;;;;;;;;;11.90;99.90;;;;;;5052958;28;19947;-70
2022/10/30 06:13:01;;;;;;;;;;;11.90;99.90;;;;;;5053971;28;19924;-69
2022/10/30 06:15:28;;;;;;;;;;;11.90;99.90;;;;;;5052285;28;20578;-70
2022/10/30 06:17:55;;;;;;;;;;;12.00;99.90;;;;;;5049272;28;20372;-70
2022/10/30 06:20:23;;;;;;;;;;;12.10;99.90;;;;;;5038516;28;19968;-70
2022/10/30 06:22:57;;;;;;;;;;;12.20;99.90;;;;;;5049862;28;19925;-70
2022/10/30 06:25:24;;;;;;;;;;;12.20;99.90;;;;;;5063243;28;19968;-70
2022/10/30 06:27:51;;;;;;;;;;;12.10;99.90;;;;;;5063639;28;19942;-70
2022/10/30 06:30:18;;;;;;;;;;;12.10;99.90;;;;;;5067102;28;19974;-70
2022/10/30 06:32:45;;;;;;;;;;;12.10;99.90;;;;;;5056054;28;19968;-70
2022/10/30 06:35:12;;;;;;;;;;;12.10;99.90;;;;;;5058815;28;19928;-72
2022/10/30 06:37:44;;;;;;;;;;;12.10;99.90;;;;;;5051458;28;20031;-71
2022/10/30 06:40:13;;;;;;;;;;;12.10;99.90;;;;;;5048857;28;19936;-70
2022/10/30 06:42:43;;;;;;;;;;;12.20;99.90;;;;;;5051794;28;19924;-70
2022/10/30 06:45:10;;;;;;;;;;;12.10;99.90;;;;;;5053260;28;19932;-70
2022/10/30 06:47:37;;;;;;;;;;;12.20;99.90;;;;;;5052161;28;19932;-70
2022/10/30 06:50:04;;;;;;;;;;;12.10;99.90;;;;;;5053759;28;19968;-70
2022/10/30 06:52:31;;;;;;;;;;;12.20;99.90;;;;;;5051505;28;19931;-70
2022/10/30 06:54:57;;;;;;;;;;;12.20;99.90;;;;;;5055407;28;20015;-69
2022/10/30 06:57:25;;;;;;;;;;;12.30;99.90;;;;;;5063983;28;19931;-70
2022/10/30 06:59:52;;;;;;;;;;;12.30;99.90;;;;;;5055677;28;20304;-70
2022/10/30 07:02:19;;;;;;;;;;;12.30;99.90;;;;;;5054405;28;20418;-70
2022/10/30 07:04:45;;;;;;;;;;;12.30;99.90;;;;;;5052259;28;19925;-70
2022/10/30 07:07:12;;;;;;;;;;;12.40;99.90;;;;;;5060019;28;19924;-70
2022/10/30 07:09:39;;;;;;;;;;;12.40;99.90;;;;;;5061005;28;20655;-70
2022/10/30 07:12:06;;;;;;;;;;;12.50;99.90;;;;;;5058466;28;20019;-70
2022/10/30 07:14:34;;;;;;;;;;;12.70;99.90;;;;;;5055760;28;19939;-70
2022/10/30 07:17:01;;;;;;;;;;;12.80;99.90;;;;;;5051535;28;19924;-71
2022/10/30 07:19:28;;;;;;;;;;;13.00;99.90;;;;;;5054983;28;20364;-71
2022/10/30 07:21:55;;;;;;;;;;;13.10;99.90;;;;;;5052267;28;20020;-72
2022/10/30 07:24:21;;;;;;;;;;;13.30;99.90;;;;;;5049636;28;20269;-72
2022/10/30 07:26:48;;;;;;;;;;;13.30;99.90;;;;;;5057160;28;19932;-72
2022/10/30 07:29:15;;;;;;;;;;;13.30;99.90;;;;;;5059794;28;20015;-71
2022/10/30 07:31:45;;;;;;;;;;;13.40;99.90;;;;;;5055740;28;20303;-71
2022/10/30 07:34:12;;;;;;;;;;;13.50;99.90;;;;;;5046849;28;19928;-71
2022/10/30 07:36:38;;;;;;;;;;;13.60;99.90;;;;;;5049187;28;20579;-71
2022/10/30 07:39:05;;;;;;;;;;;13.70;99.90;;;;;;5050202;28;19924;-71
2022/10/30 07:41:32;;;;;;;;;;;13.80;99.90;;;;;;5059498;28;19924;-71
2022/10/30 07:43:58;;;;;;;;;;;13.90;99.90;;;;;;5049400;28;19940;-71
2022/10/30 07:46:25;;;;;;;;;;;14.00;99.90;;;;;;5054376;28;19939;-71
2022/10/30 07:48:53;;;;;;;;;;;14.10;99.90;;;;;;5054668;28;19924;-71
2022/10/30 07:51:20;;;;;;;;;;;14.10;99.90;;;;;;5051023;28;20015;-71
2022/10/30 07:53:47;;;;;;;;;;;14.10;99.90;;;;;;5047358;28;20019;-72
2022/10/30 07:56:14;;;;;;;;;;;14.10;99.90;;;;;;5046444;28;20467;-71
2022/10/30 07:58:40;;;;;;;;;;;14.10;99.90;;;;;;5052624;28;20242;-72
2022/10/30 08:01:07;;;;;;;;;;;14.30;99.90;;;;;;5066480;28;20015;-72
2022/10/30 08:03:33;;;;;;;;;;;14.50;99.90;;;;;;5057958;28;19931;-72
2022/10/30 08:06:01;;;;;;;;;;;15.00;99.90;;;;;;5051686;28;19933;-72
2022/10/30 08:08:28;;;;;;;;;;;15.70;99.90;;;;;;5045803;28;19935;-72
2022/10/30 08:10:55;;;;;;;;;;;16.90;99.90;;;;;;5046816;28;20376;-72
2022/10/30 08:13:21;;;;;;;;;;;17.70;99.90;;;;;;5048957;28;19930;-72
2022/10/30 08:15:49;;;;;;;;;;;17.80;99.90;;;;;;5052041;28;20387;-73
2022/10/30 08:18:15;;;;;;;;;;;17.80;99.90;;;;;;5045283;28;20369;-72
2022/10/30 08:20:47;;;;;;;;;;;17.50;99.90;;;;;;5041665;28;19925;-72
2022/10/30 08:23:18;;;;;;;;;;;17.10;99.90;;;;;;5046354;28;19957;-71
2022/10/30 08:25:46;;;;;;;;;;;16.90;99.90;;;;;;5042591;28;20376;-71
2022/10/30 08:28:13;;;;;;;;;;;16.70;99.90;;;;;;5043259;28;19960;-72
2022/10/30 08:30:40;;;;;;;;;;;16.90;99.90;;;;;;5044727;28;19971;-73
2022/10/30 08:33:07;;;;;;;;;;;17.20;99.90;;;;;;5043331;28;19925;-72
2022/10/30 08:35:34;;;;;;;;;;;17.90;99.90;;;;;;5043730;28;19931;-72
2022/10/30 08:38:01;;;;;;;;;;;18.30;99.90;;;;;;5046478;28;19924;-73
2022/10/30 08:40:29;;;;;;;;;;;18.20;99.90;;;;;;5040321;28;19928;-72
2022/10/30 08:42:57;;;;;;;;;;;18.00;99.90;;;;;;5046054;28;19925;-72
2022/10/30 08:45:25;;;;;;;;;;;17.90;99.90;;;;;;5042653;28;20012;-73
2022/10/30 08:47:56;;;;;;;;;;;17.70;99.90;;;;;;5043346;28;19939;-72
2022/10/30 08:50:23;;;;;;;;;;;17.80;99.90;;;;;;5041206;28;19932;-72
2022/10/30 08:52:50;;;;;;;;;;;18.50;99.90;;;;;;5046528;28;20486;-73
2022/10/30 08:55:16;;;;;;;;;;;19.70;99.90;;;;;;5044024;28;20007;-71
2022/10/30 08:57:45;;;;;;;;;;;20.60;99.90;;;;;;5039106;28;20175;-72
2022/10/30 09:00:12;;;;;;;;;;;21.10;99.90;;;;;;5046057;28;19933;-72
2022/10/30 09:02:39;;;;;;;;;;;21.40;99.90;;;;;;5034942;28;19935;-72
2022/10/30 09:05:06;;;;;;;;;;;21.10;99.90;;;;;;5036594;28;19924;-72
2022/10/30 09:07:33;;;;;;;;;;;21.50;99.90;;;;;;5044425;28;19925;-72
2022/10/30 09:10:00;;;;;;;;;;;22.20;99.90;;;;;;5047872;28;19924;-70
2022/10/30 09:12:26;;;;;;;;;;;22.80;98.90;;;;;;5044831;28;19932;-71
2022/10/30 09:14:54;;;;;;;;;;;22.80;97.40;;;;;;5042593;28;20015;-71
2022/10/30 09:17:21;;;;;;;;;;;22.00;98.10;;;;;;5041008;28;20290;-71
2022/10/30 09:19:48;;;;;;;;;;;20.80;99.90;;;;;;5046384;28;19931;-72
2022/10/30 09:22:14;;;;;;;;;;;20.00;99.90;;;;;;5050626;28;20004;-72
2022/10/30 09:24:41;;;;;;;;;;;19.40;99.90;;;;;;5050302;28;19969;-71
2022/10/30 09:27:08;;;;;;;;;;;19.00;99.90;;;;;;5045981;28;19929;-71
2022/10/30 09:29:34;;;;;;;;;;;18.70;99.90;;;;;;5045331;28;19924;-71
2022/10/30 09:32:07;;;;;;;;;;;18.70;99.90;;;;;;5038365;28;20015;-70
2022/10/30 09:34:34;;;;;;;;;;;18.60;99.90;;;;;;5036817;28;19943;-71
2022/10/30 09:37:00;;;;;;;;;;;18.60;99.90;;;;;;5039174;28;20003;-72
2022/10/30 09:39:28;;;;;;;;;;;18.50;99.90;;;;;;5044221;28;19960;-73
2022/10/30 09:42:04;;;;;;;;;;;18.50;99.90;;;;;;5043733;28;19925;-71
2022/10/30 09:44:37;;;;;;;;;;;18.60;99.90;;;;;;5051849;28;19933;-72
2022/10/30 09:47:11;;;;;;;;;;;18.70;99.90;;;;;;5047604;28;19943;-71
2022/10/30 09:49:46;;;;;;;;;;;18.60;99.90;;;;;;5048186;28;19952;-71
2022/10/30 09:52:21;;;;;;;;;;;18.60;99.90;;;;;;5044312;28;19931;-72
2022/10/30 09:54:54;;;;;;;;;;;18.50;99.90;;;;;;5044140;28;20590;-72
2022/10/30 09:57:24;;;;;;;;;;;18.50;99.90;;;;;;5048959;28;19939;-72
2022/10/30 09:59:58;;;;;;;;;;;18.40;99.90;;;;;;5048214;28;20378;-72
2022/10/30 10:02:32;;;;;;;;;;;18.40;99.90;;;;;;5051239;28;20015;-72
2022/10/30 10:05:00;;;;;;;;;;;18.50;99.90;;;;;;5045654;28;20020;-73
2022/10/30 10:07:29;;;;;;;;;;;18.50;99.90;;;;;;5055604;28;19932;-72
2022/10/30 10:10:01;;;;;;;;;;;18.60;99.90;;;;;;5054822;28;19958;-72
2022/10/30 10:12:30;;;;;;;;;;;18.60;99.90;;;;;;5064583;28;20415;-72
2022/10/30 10:14:57;;;;;;;;;;;18.70;99.90;;;;;;5056698;28;19947;-72
2022/10/30 10:17:29;;;;;;;;;;;18.70;99.90;;;;;;5050689;28;19955;-72
2022/10/30 10:19:59;;;;;;;;;;;18.70;99.90;;;;;;5055533;28;19924;-72
2022/10/30 10:22:27;;;;;;;;;;;18.80;99.90;;;;;;5047161;28;19932;-73
2022/10/30 10:24:59;;;;;;;;;;;18.90;99.90;;;;;;5046950;28;19924;-72
2022/10/30 10:27:41;;;;;;;;;;;18.90;99.90;;;;;;5048198;28;19931;-71
2022/10/30 10:30:10;;;;;;;;;;;18.80;99.90;;;;;;5050879;28;20023;-71
2022/10/30 10:32:47;;;;;;;;;;;18.80;99.90;;;;;;5041766;28;20380;-70
2022/10/30 10:35:22;;;;;;;;;;;18.70;99.90;;;;;;5042843;28;19933;-70
2022/10/30 10:37:52;;;;;;;;;;;18.70;99.90;;;;;;5054713;28;19924;-71
2022/10/30 10:40:24;;;;;;;;;;;18.70;99.90;;;;;;5053449;28;20007;-69
2022/10/30 10:42:57;;;;;;;;;;;18.80;99.90;;;;;;5051416;28;19931;-70
2022/10/30 10:45:34;;;;;;;;;;;18.80;99.90;;;;;;5050253;28;19925;-70
2022/10/30 10:48:16;;;;;;;;;;;18.90;99.90;;;;;;5046061;28;19972;-71
2022/10/30 10:50:47;;;;;;;;;;;18.90;99.90;;;;;;5048498;28;20191;-70
2022/10/30 10:53:18;;;;;;;;;;;19.00;99.90;;;;;;5048217;28;20443;-69
2022/10/30 10:55:48;;;;;;;;;;;19.00;99.90;;;;;;5046891;28;19939;-70
2022/10/30 10:58:18;;;;;;;;;;;19.00;99.90;;;;;;5053226;28;19929;-70
2022/10/30 11:00:45;;;;;;;;;;;19.00;99.90;;;;;;5047968;28;19925;-70
2022/10/30 11:03:14;;;;;;;;;;;19.00;99.90;;;;;;5050311;28;19928;-70
2022/10/30 11:05:43;;;;;;;;;;;19.10;99.90;;;;;;5053990;28;20406;-70
2022/10/30 11:08:17;;;;;;;;;;;19.10;99.90;;;;;;5054385;28;19924;-70
2022/10/30 11:10:54;;;;;;;;;;;19.10;99.90;;;;;;5053215;28;20311;-71
2022/10/30 11:13:23;;;;;;;;;;;19.10;99.90;;;;;;5057870;28;20450;-71
2022/10/30 11:15:53;;;;;;;;;;;19.00;99.90;;;;;;5048748;28;20370;-72
2022/10/30 11:18:20;;;;;;;;;;;19.10;99.90;;;;;;5045437;28;20003;-70
2022/10/30 11:20:51;;;;;;;;;;;19.30;99.90;;;;;;5050418;28;20023;-70
2022/10/30 11:23:33;;;;;;;;;;;19.40;99.90;;;;;;5050062;28;20406;-70
2022/10/30 11:25:59;;;;;;;;;;;19.40;99.90;;;;;;5046712;28;19925;-71
2022/10/30 11:28:38;;;;;;;;;;;19.40;99.90;;;;;;5049522;28;19932;-72
2022/10/30 11:31:19;;;;;;;;;;;19.60;99.90;;;;;;5045956;28;19955;-71
2022/10/30 11:33:47;;;;;;;;;;;19.70;99.90;;;;;;5044686;28;19924;-72
2022/10/30 11:36:14;;;;;;;;;;;19.60;99.90;;;;;;5051040;28;19924;-71
2022/10/30 11:38:42;;;;;;;;;;;19.50;99.90;;;;;;5042902;28;19932;-71
2022/10/30 11:41:10;;;;;;;;;;;19.50;99.90;;;;;;5041327;28;20017;-72
2022/10/30 11:43:37;;;;;;;;;;;19.50;99.90;;;;;;5047080;28;20032;-72
2022/10/30 11:46:08;;;;;;;;;;;19.50;99.90;;;;;;5049050;28;19931;-72
2022/10/30 11:48:37;;;;;;;;;;;19.50;99.90;;;;;;5044623;28;19973;-71
2022/10/30 11:51:04;;;;;;;;;;;19.60;99.90;;;;;;5047290;28;19928;-71
2022/10/30 11:53:34;;;;;;;;;;;19.50;99.90;;;;;;5047961;28;19939;-71
2022/10/30 11:56:03;;;;;;;;;;;19.60;99.90;;;;;;5049018;28;19924;-70
2022/10/30 11:58:32;;;;;;;;;;;19.70;99.90;;;;;;5043885;28;19929;-71
2022/10/30 12:01:00;;;;;;;;;;;19.70;99.90;;;;;;5038776;28;19939;-71
2022/10/30 12:03:28;;;;;;;;;;;19.60;99.90;;;;;;5042061;28;19932;-71
2022/10/30 12:06:06;;;;;;;;;;;19.60;99.90;;;;;;5040036;28;20034;-72
2022/10/30 12:08:33;;;;;;;;;;;19.60;99.90;;;;;;5038920;28;20035;-70
2022/10/30 12:11:01;;;;;;;;;;;19.70;99.90;;;;;;5047572;28;19932;-71
2022/10/30 12:13:32;;;;;;;;;;;19.70;99.90;;;;;;5049386;28;19925;-71
2022/10/30 12:16:15;;;;;;;;;;;19.70;99.90;;;;;;5042495;28;20289;-74
2022/10/30 12:18:42;;;;;;;;;;;19.80;99.90;;;;;;5046221;28;20344;-73
2022/10/30 12:21:10;;;;;;;;;;;19.90;99.90;;;;;;5047244;28;20003;-73
2022/10/30 12:23:38;;;;;;;;;;;19.90;99.90;;;;;;5048851;28;19924;-73
2022/10/30 12:26:09;;;;;;;;;;;19.90;99.90;;;;;;5049996;28;19925;-72
2022/10/30 12:28:38;;;;;;;;;;;20.00;99.90;;;;;;5046055;28;19947;-71
2022/10/30 12:31:09;;;;;;;;;;;20.00;99.90;;;;;;5039165;28;19989;-72
2022/10/30 12:33:38;;;;;;;;;;;20.10;99.90;;;;;;5047677;28;19931;-71
2022/10/30 12:36:06;;;;;;;;;;;20.00;99.90;;;;;;5044899;28;19925;-72
2022/10/30 12:38:35;;;;;;;;;;;20.10;99.90;;;;;;5048271;28;20361;-71
2022/10/30 12:41:05;;;;;;;;;;;20.10;99.90;;;;;;5050353;28;19931;-72
2022/10/30 12:43:33;;;;;;;;;;;20.10;99.90;;;;;;5048089;28;19968;-71
2022/10/30 12:46:06;;;;;;;;;;;20.20;99.90;;;;;;5046622;28;19959;-71
2022/10/30 12:48:36;;;;;;;;;;;20.30;99.90;;;;;;5048587;28;19943;-71
2022/10/30 12:51:09;;;;;;;;;;;20.40;99.90;;;;;;5049193;28;19932;-71
2022/10/30 12:53:39;;;;;;;;;;;20.40;99.90;;;;;;5041668;28;20015;-71
2022/10/30 12:56:08;;;;;;;;;;;20.30;99.90;;;;;;5046493;28;19932;-72
2022/10/30 12:58:39;;;;;;;;;;;20.40;99.90;;;;;;5050600;28;20003;-70
2022/10/30 13:01:12;;;;;;;;;;;20.40;99.90;;;;;;5056461;28;20303;-71
2022/10/30 13:03:41;;;;;;;;;;;20.60;99.90;;;;;;5047899;28;20409;-71
2022/10/30 13:06:13;;;;;;;;;;;20.50;99.90;;;;;;5051360;28;19929;-71
2022/10/30 13:08:42;;;;;;;;;;;20.40;99.90;;;;;;5050814;28;19940;-70
2022/10/30 13:11:11;;;;;;;;;;;20.40;99.90;;;;;;5044130;28;19968;-71
2022/10/30 13:13:40;;;;;;;;;;;20.30;99.90;;;;;;5044823;28;20293;-70
2022/10/30 13:16:12;;;;;;;;;;;20.20;99.90;;;;;;5031415;28;19925;-70
2022/10/30 13:18:39;;;;;;;;;;;20.20;99.90;;;;;;5045326;28;20016;-70
2022/10/30 13:21:12;;;;;;;;;;;20.30;99.90;;;;;;5051813;28;19924;-71
2022/10/30 13:23:43;;;;;;;;;;;20.40;99.90;;;;;;5050971;28;20023;-71
2022/10/30 13:26:15;;;;;;;;;;;20.40;99.90;;;;;;5051286;28;20249;-70
2022/10/30 13:28:44;;;;;;;;;;;20.30;99.90;;;;;;5051276;28;19925;-71
2022/10/30 13:31:17;;;;;;;;;;;20.30;99.90;;;;;;5051148;28;19929;-71
2022/10/30 13:33:49;;;;;;;;;;;20.20;99.90;;;;;;5047501;28;19925;-70
2022/10/30 13:36:19;;;;;;;;;;;20.00;99.90;;;;;;5049757;28;20394;-71
2022/10/30 13:38:51;;;;;;;;;;;20.00;99.90;;;;;;5049917;28;20294;-70
2022/10/30 13:41:23;;;;;;;;;;;20.00;99.90;;;;;;5048722;28;19925;-71
2022/10/30 13:43:54;;;;;;;;;;;20.00;99.90;;;;;;5053772;28;19929;-72
2022/10/30 13:46:27;;;;;;;;;;;19.90;99.90;;;;;;5055368;28;19929;-72
2022/10/30 13:48:58;;;;;;;;;;;20.00;99.90;;;;;;5042097;28;20007;-70
2022/10/30 13:51:29;;;;;;;;;;;20.00;99.90;;;;;;5053290;28;19944;-71
2022/10/30 13:54:00;;;;;;;;;;;20.00;99.90;;;;;;5052979;28;19925;-70
2022/10/30 13:56:27;;;;;;;;;;;20.00;99.90;;;;;;5054948;28;19925;-70
2022/10/30 13:58:58;;;;;;;;;;;19.90;99.90;;;;;;5054128;28;20016;-70
2022/10/30 14:01:30;;;;;;;;;;;19.80;99.90;;;;;;5053788;28;20455;-71
2022/10/30 14:04:01;;;;;;;;;;;19.80;99.90;;;;;;5054040;28;19925;-70
2022/10/30 14:06:34;;;;;;;;;;;19.80;99.90;;;;;;5054355;28;20447;-71
2022/10/30 14:09:05;;;;;;;;;;;19.70;99.90;;;;;;5062272;28;19935;-69
2022/10/30 14:11:32;;;;;;;;;;;19.60;99.90;;;;;;5053315;28;19928;-70
2022/10/30 14:14:04;;;;;;;;;;;19.50;99.90;;;;;;5054309;28;20015;-71
2022/10/30 14:16:37;;;;;;;;;;;19.50;99.90;;;;;;5054759;28;20031;-70
2022/10/30 14:19:05;;;;;;;;;;;19.40;99.90;;;;;;5052234;28;19931;-70
2022/10/30 14:21:37;;;;;;;;;;;19.40;99.90;;;;;;5050787;28;19968;-70
2022/10/30 14:24:10;;;;;;;;;;;19.50;99.90;;;;;;5049671;28;19931;-69